Time;durP1;ratioP1;P1;durP2;ratioP2;P2;SDS_P1;SDS_P2;PMS_P1;PMS_P2;Temp;Humidity;BMP_temperature;BMP_pressure;BME280_temperature;BME280_humidity;BME280_pressure;Samples;Min_cycle;Max_cycle;Signal;HPM_P1;HPM_P2
2023/10/22 00:00:31;;;;;;;1.73;1.20;;;23.00;72.70;;;;;;5053241;28;20485;-92
2023/10/22 00:02:58;;;;;;;2.37;1.17;;;23.10;72.80;;;;;;5053258;28;20442;-94
2023/10/22 00:05:25;;;;;;;4.07;1.40;;;23.00;72.60;;;;;;5052953;28;20442;-84
2023/10/22 00:07:51;;;;;;;1.63;1.20;;;23.00;72.60;;;;;;5052804;28;20444;-94
2023/10/22 00:10:18;;;;;;;2.17;1.30;;;23.10;72.70;;;;;;5053401;28;20460;-90
2023/10/22 00:12:45;;;;;;;2.37;1.00;;;23.00;72.30;;;;;;5052763;28;20437;-84
2023/10/22 00:15:14;;;;;;;1.63;1.20;;;23.10;72.50;;;;;;5053827;28;20491;-93
2023/10/22 00:17:41;;;;;;;3.03;1.10;;;23.00;72.40;;;;;;5053361;28;20524;-84
2023/10/22 00:20:09;;;;;;;1.70;1.33;;;23.00;72.40;;;;;;5053346;28;20538;-94
2023/10/22 00:22:36;;;;;;;1.40;1.00;;;23.00;72.30;;;;;;5053678;28;20510;-93
2023/10/22 00:25:03;;;;;;;1.73;1.27;;;23.00;72.30;;;;;;5053330;28;20457;-93
2023/10/22 00:27:29;;;;;;;2.17;1.17;;;22.90;72.10;;;;;;5053270;28;20436;-94
2023/10/22 00:29:56;;;;;;;1.80;1.03;;;23.00;72.30;;;;;;5053648;28;20445;-84
2023/10/22 00:32:25;;;;;;;4.20;1.00;;;22.90;72.10;;;;;;5053423;28;20444;-93
2023/10/22 00:34:51;;;;;;;3.00;1.20;;;22.90;72.10;;;;;;5053219;28;20524;-83
2023/10/22 00:37:18;;;;;;;2.83;0.90;;;23.00;72.30;;;;;;5053460;28;20441;-93
2023/10/22 00:39:45;;;;;;;1.30;1.07;;;22.90;72.10;;;;;;5052954;28;20478;-92
2023/10/22 00:42:12;;;;;;;1.67;1.10;;;22.90;72.90;;;;;;5053348;28;20444;-84
2023/10/22 00:44:39;;;;;;;1.60;1.13;;;22.90;72.10;;;;;;5053198;28;20448;-94
2023/10/22 00:47:07;;;;;;;1.20;1.03;;;22.90;72.00;;;;;;5053315;28;20437;-84
2023/10/22 00:49:35;;;;;;;1.30;0.90;;;23.00;72.30;;;;;;5052965;28;20437;-92
2023/10/22 00:52:03;;;;;;;1.60;0.90;;;22.90;72.20;;;;;;5053181;28;20448;-84
2023/10/22 00:54:30;;;;;;;1.10;0.90;;;22.90;72.00;;;;;;5053283;28;20457;-93
2023/10/22 00:56:59;;;;;;;1.10;0.90;;;22.90;72.20;;;;;;5052938;28;20467;-84
2023/10/22 00:59:26;;;;;;;1.10;0.90;;;22.90;72.00;;;;;;5052883;28;20433;-84
2023/10/22 01:01:52;;;;;;;2.00;1.10;;;22.90;72.00;;;;;;5053029;28;20433;-84
2023/10/22 01:04:19;;;;;;;1.20;0.80;;;22.90;72.00;;;;;;5053290;28;20436;-93
2023/10/22 01:06:47;;;;;;;4.17;1.30;;;22.90;72.00;;;;;;5052964;28;20433;-84
2023/10/22 01:09:16;;;;;;;1.10;0.90;;;22.90;72.00;;;;;;5052682;28;20445;-84
2023/10/22 01:11:58;;;;;;;1.30;0.97;;;22.90;72.00;;;;;;5052945;28;20997;-84
2023/10/22 01:14:25;;;;;;;1.53;1.10;;;22.90;71.90;;;;;;5052922;28;20433;-93
2023/10/22 01:16:52;;;;;;;1.40;1.30;;;22.90;71.90;;;;;;5052780;28;20442;-90
2023/10/22 01:19:20;;;;;;;1.20;0.80;;;22.90;72.00;;;;;;5054013;28;20451;-93
2023/10/22 01:21:48;;;;;;;2.70;0.90;;;22.90;72.10;;;;;;5056288;28;20503;-84
2023/10/22 01:24:16;;;;;;;1.20;0.93;;;22.90;72.10;;;;;;5056932;28;20476;-90
2023/10/22 01:26:43;;;;;;;2.07;1.33;;;22.90;72.20;;;;;;5056641;28;20441;-84
2023/10/22 01:29:11;;;;;;;1.50;1.00;;;22.80;71.90;;;;;;5056375;28;20922;-94
2023/10/22 01:31:37;;;;;;;1.20;1.03;;;22.80;72.00;;;;;;5056503;28;20747;-94
2023/10/22 01:34:05;;;;;;;1.43;1.00;;;22.80;72.10;;;;;;5056266;28;20429;-94
2023/10/22 01:36:31;;;;;;;1.30;0.90;;;22.80;72.10;;;;;;5056115;28;20446;-84
2023/10/22 01:38:58;;;;;;;1.60;0.90;;;22.90;72.40;;;;;;5056204;28;20516;-85
2023/10/22 01:41:26;;;;;;;1.17;0.97;;;22.80;72.10;;;;;;5056103;28;20492;-94
2023/10/22 01:43:53;;;;;;;1.40;0.90;;;22.80;72.20;;;;;;5056234;28;20448;-94
2023/10/22 01:46:20;;;;;;;2.80;1.10;;;22.80;72.20;;;;;;5056078;28;20437;-94
2023/10/22 01:48:47;;;;;;;1.83;1.10;;;22.80;72.20;;;;;;5056060;28;20440;-84
2023/10/22 01:51:14;;;;;;;1.60;1.10;;;22.80;72.20;;;;;;5055882;28;20448;-84
2023/10/22 01:53:42;;;;;;;1.47;1.07;;;22.80;72.10;;;;;;5056020;28;20679;-94
2023/10/22 01:56:09;;;;;;;1.83;0.90;;;22.80;72.20;;;;;;5055889;28;20503;-94
2023/10/22 01:58:37;;;;;;;2.03;1.00;;;22.80;72.30;;;;;;5055769;28;20473;-95
2023/10/22 02:01:05;;;;;;;1.30;0.80;;;22.80;72.20;;;;;;5055796;28;20477;-84
2023/10/22 02:03:35;;;;;;;1.30;0.80;;;22.80;72.20;;;;;;5055591;28;20521;-85
2023/10/22 02:06:02;;;;;;;1.30;1.10;;;22.80;72.20;;;;;;5056155;28;20504;-85
2023/10/22 02:08:28;;;;;;;1.50;1.07;;;22.80;72.30;;;;;;5055752;28;20520;-93
2023/10/22 02:10:55;;;;;;;1.20;0.90;;;22.80;72.30;;;;;;5055402;28;20437;-85
2023/10/22 02:13:22;;;;;;;1.10;0.90;;;22.80;72.30;;;;;;5055529;28;20948;-94
2023/10/22 02:15:50;;;;;;;1.10;0.77;;;22.80;72.30;;;;;;5055512;28;20440;-94
2023/10/22 02:18:17;;;;;;;1.30;1.00;;;22.80;72.40;;;;;;5055555;28;20433;-94
2023/10/22 02:20:55;;;;;;;1.17;0.90;;;22.80;72.50;;;;;;5054880;28;20481;-95
2023/10/22 02:23:22;;;;;;;1.07;0.80;;;22.80;72.30;;;;;;5055539;28;20461;-85
2023/10/22 02:25:49;;;;;;;1.50;0.93;;;22.80;72.30;;;;;;5055324;28;20433;-95
2023/10/22 02:28:16;;;;;;;1.50;0.90;;;22.80;72.50;;;;;;5055282;28;20434;-94
2023/10/22 02:30:43;;;;;;;1.50;1.20;;;22.80;72.40;;;;;;5054918;28;20532;-85
2023/10/22 02:33:11;;;;;;;1.30;1.00;;;22.70;72.40;;;;;;5055043;28;20438;-94
2023/10/22 02:35:40;;;;;;;1.90;1.20;;;22.70;72.30;;;;;;5055303;28;20503;-92
2023/10/22 02:38:07;;;;;;;1.30;0.90;;;22.80;72.50;;;;;;5055252;28;20932;-94
2023/10/22 02:40:35;;;;;;;1.30;1.00;;;22.80;72.50;;;;;;5054984;28;20903;-94
2023/10/22 02:43:02;;;;;;;1.40;1.10;;;22.80;72.50;;;;;;5055110;28;20444;-84
2023/10/22 02:45:29;;;;;;;1.30;0.90;;;22.70;72.30;;;;;;5055132;28;20438;-84
2023/10/22 02:47:56;;;;;;;1.10;0.90;;;22.70;72.40;;;;;;5055509;28;20445;-84
2023/10/22 02:50:25;;;;;;;1.50;1.00;;;22.70;72.40;;;;;;5054937;28;20536;-94
2023/10/22 02:52:52;;;;;;;1.10;0.90;;;22.70;72.30;;;;;;5055021;28;20445;-87
2023/10/22 02:55:19;;;;;;;1.20;0.80;;;22.80;72.50;;;;;;5054721;28;20529;-84
2023/10/22 02:57:47;;;;;;;1.30;0.80;;;22.80;72.40;;;;;;5054592;28;20438;-94
2023/10/22 03:00:15;;;;;;;1.33;1.00;;;22.70;72.40;;;;;;5054735;28;20445;-84
2023/10/22 03:02:41;;;;;;;1.10;0.80;;;22.70;72.40;;;;;;5054681;28;20429;-86
2023/10/22 03:05:08;;;;;;;1.23;0.70;;;22.70;73.30;;;;;;5054518;28;20459;-93
2023/10/22 03:07:37;;;;;;;2.10;1.10;;;22.70;73.30;;;;;;5054352;28;20433;-84
2023/10/22 03:10:04;;;;;;;1.57;0.90;;;22.70;72.50;;;;;;5054709;28;20799;-84
2023/10/22 03:12:31;;;;;;;1.10;0.80;;;22.70;72.50;;;;;;5054352;28;20446;-84
2023/10/22 03:14:57;;;;;;;1.13;0.90;;;22.70;72.60;;;;;;5054292;28;20433;-84
2023/10/22 03:17:24;;;;;;;1.10;0.90;;;22.70;72.60;;;;;;5054255;28;20434;-92
2023/10/22 03:19:51;;;;;;;1.27;0.90;;;22.70;72.50;;;;;;5054249;28;20436;-84
2023/10/22 03:22:18;;;;;;;1.20;0.80;;;22.70;72.60;;;;;;5054546;28;20493;-85
2023/10/22 03:24:50;;;;;;;1.10;0.80;;;22.70;72.50;;;;;;5054312;28;20549;-84
2023/10/22 03:27:18;;;;;;;1.20;0.90;;;22.70;72.50;;;;;;5054372;28;20437;-93
2023/10/22 03:29:45;;;;;;;1.10;0.77;;;22.70;72.50;;;;;;5053993;28;20495;-84
2023/10/22 03:32:11;;;;;;;1.20;1.00;;;22.70;72.50;;;;;;5054178;28;20435;-85
2023/10/22 03:34:38;;;;;;;1.30;0.90;;;22.70;72.60;;;;;;5054265;28;20439;-95
2023/10/22 03:37:05;;;;;;;1.40;0.97;;;22.70;72.60;;;;;;5053869;28;20433;-84
2023/10/22 03:39:32;;;;;;;1.70;1.10;;;22.70;72.60;;;;;;5054211;28;20440;-84
2023/10/22 03:42:00;;;;;;;1.10;0.80;;;22.70;72.60;;;;;;5053319;28;20493;-84
2023/10/22 03:44:27;;;;;;;1.20;0.80;;;22.70;73.40;;;;;;5054115;28;20429;-94
2023/10/22 03:46:54;;;;;;;1.60;0.80;;;22.60;72.40;;;;;;5054322;28;20442;-85
2023/10/22 03:49:20;;;;;;;1.20;0.77;;;22.70;72.60;;;;;;5054068;28;20440;-85
2023/10/22 03:51:47;;;;;;;1.60;0.90;;;22.70;72.60;;;;;;5053844;28;20432;-95
2023/10/22 03:54:14;;;;;;;1.00;0.70;;;22.60;73.40;;;;;;5053573;28;20457;-84
2023/10/22 03:56:41;;;;;;;1.60;0.80;;;22.70;72.70;;;;;;5053686;28;20441;-94
2023/10/22 03:59:09;;;;;;;1.30;0.97;;;22.70;72.70;;;;;;5053622;28;20435;-84
2023/10/22 04:01:35;;;;;;;1.07;0.70;;;22.70;72.70;;;;;;5053291;28;20480;-84
2023/10/22 04:04:02;;;;;;;1.00;0.70;;;22.60;72.60;;;;;;5053556;28;20444;-84
2023/10/22 04:06:31;;;;;;;1.20;0.87;;;22.70;72.70;;;;;;5053744;28;20797;-84
2023/10/22 04:08:57;;;;;;;1.10;0.90;;;22.60;72.60;;;;;;5053747;28;20508;-94
2023/10/22 04:11:24;;;;;;;1.10;0.80;;;22.60;72.60;;;;;;5053461;28;20461;-84
2023/10/22 04:13:51;;;;;;;1.30;0.90;;;22.70;72.70;;;;;;5053483;28;20928;-87
2023/10/22 04:16:19;;;;;;;1.20;0.90;;;22.60;72.70;;;;;;5053618;28;20959;-94
2023/10/22 04:18:46;;;;;;;1.60;0.80;;;22.60;72.70;;;;;;5053503;28;20433;-84
2023/10/22 04:21:13;;;;;;;1.70;0.90;;;22.60;72.70;;;;;;5053268;28;20493;-85
2023/10/22 04:23:40;;;;;;;1.60;0.90;;;22.60;72.70;;;;;;5053281;28;20461;-85
2023/10/22 04:26:12;;;;;;;1.10;0.77;;;22.60;72.70;;;;;;5053678;28;20451;-84
2023/10/22 04:28:39;;;;;;;1.87;1.00;;;22.60;72.70;;;;;;5053294;28;20433;-85
2023/10/22 04:31:05;;;;;;;1.00;0.73;;;22.60;72.70;;;;;;5053413;28;20440;-94
2023/10/22 04:33:35;;;;;;;1.20;0.93;;;22.60;72.70;;;;;;5053440;28;20765;-94
2023/10/22 04:36:02;;;;;;;1.93;0.70;;;22.60;72.70;;;;;;5053270;28;20429;-90
2023/10/22 04:38:30;;;;;;;1.20;0.90;;;22.60;72.70;;;;;;5053273;28;20449;-94
2023/10/22 04:40:56;;;;;;;1.10;0.80;;;22.60;72.60;;;;;;5053270;28;20477;-84
2023/10/22 04:43:23;;;;;;;0.97;0.70;;;22.70;72.80;;;;;;5053158;28;20445;-84
2023/10/22 04:45:50;;;;;;;1.20;0.90;;;22.60;72.80;;;;;;5053356;28;20430;-94
2023/10/22 04:48:18;;;;;;;1.50;0.90;;;22.60;72.80;;;;;;5053452;28;20785;-95
2023/10/22 04:50:46;;;;;;;1.10;0.80;;;22.60;72.70;;;;;;5053417;28;20469;-84
2023/10/22 04:53:13;;;;;;;1.73;0.70;;;22.60;72.70;;;;;;5054447;28;20461;-84
2023/10/22 04:55:39;;;;;;;1.47;0.93;;;22.60;72.80;;;;;;5056998;28;20444;-93
2023/10/22 04:58:06;;;;;;;1.47;0.80;;;22.60;72.70;;;;;;5057133;28;20451;-84
2023/10/22 05:00:33;;;;;;;1.10;0.80;;;22.60;72.80;;;;;;5056908;28;20502;-84
2023/10/22 05:03:00;;;;;;;1.70;1.10;;;22.60;72.70;;;;;;5056709;28;20844;-94
2023/10/22 05:05:27;;;;;;;1.27;0.97;;;22.60;72.80;;;;;;5056776;28;20433;-94
2023/10/22 05:07:55;;;;;;;1.30;0.77;;;22.60;72.80;;;;;;5056921;28;20452;-94
2023/10/22 05:10:22;;;;;;;1.00;0.63;;;22.60;72.80;;;;;;5057064;28;20437;-94
2023/10/22 05:12:48;;;;;;;1.70;0.83;;;22.60;72.80;;;;;;5057187;28;20440;-94
2023/10/22 05:15:16;;;;;;;1.20;0.77;;;22.60;72.70;;;;;;5057060;28;20440;-93
2023/10/22 05:17:42;;;;;;;1.03;0.70;;;22.60;72.80;;;;;;5056642;28;20548;-84
2023/10/22 05:20:10;;;;;;;1.10;0.77;;;22.60;72.70;;;;;;5056252;28;20527;-86
2023/10/22 05:22:37;;;;;;;1.10;0.80;;;22.60;72.80;;;;;;5056346;28;20564;-84
2023/10/22 05:25:06;;;;;;;1.30;1.00;;;22.60;72.80;;;;;;5056467;28;20463;-84
2023/10/22 05:27:33;;;;;;;1.47;0.80;;;22.60;72.80;;;;;;5056455;28;20437;-84
2023/10/22 05:29:59;;;;;;;1.10;0.70;;;22.60;72.80;;;;;;5056687;28;20825;-84
2023/10/22 05:32:26;;;;;;;1.10;0.90;;;22.50;72.70;;;;;;5056932;28;20433;-94
2023/10/22 05:34:53;;;;;;;1.20;0.80;;;22.60;72.80;;;;;;5056124;28;20524;-84
2023/10/22 05:37:22;;;;;;;1.10;0.90;;;22.60;72.90;;;;;;5055851;28;20464;-84
2023/10/22 05:39:49;;;;;;;1.07;0.80;;;22.60;72.80;;;;;;5056036;28;20529;-84
2023/10/22 05:42:17;;;;;;;1.10;0.90;;;22.50;72.70;;;;;;5055936;28;20480;-84
2023/10/22 05:44:44;;;;;;;1.20;0.70;;;22.60;72.80;;;;;;5055952;28;20536;-85
2023/10/22 05:47:11;;;;;;;1.20;0.90;;;22.50;72.70;;;;;;5056188;28;20448;-94
2023/10/22 05:49:38;;;;;;;1.20;0.90;;;22.50;72.70;;;;;;5056344;28;20445;-85
2023/10/22 05:52:05;;;;;;;1.00;0.67;;;22.50;72.80;;;;;;5055920;28;20441;-84
2023/10/22 05:54:31;;;;;;;1.00;0.73;;;22.50;72.80;;;;;;5055810;28;21077;-85
2023/10/22 05:56:58;;;;;;;1.20;0.70;;;22.50;72.80;;;;;;5056221;28;20935;-93
2023/10/22 05:59:26;;;;;;;1.00;0.70;;;22.50;72.70;;;;;;5055869;28;20919;-93
2023/10/22 06:01:53;;;;;;;1.30;0.80;;;22.50;72.80;;;;;;5055984;28;20491;-94
2023/10/22 06:04:20;;;;;;;1.20;0.80;;;22.60;72.90;;;;;;5055103;28;20537;-87
2023/10/22 06:06:47;;;;;;;1.27;0.73;;;22.50;72.80;;;;;;5055784;28;20433;-92
2023/10/22 06:09:14;;;;;;;1.10;0.60;;;22.50;73.60;;;;;;5055871;28;20433;-87
2023/10/22 06:11:41;;;;;;;1.13;0.70;;;22.50;72.70;;;;;;5055478;28;20952;-90
2023/10/22 06:14:07;;;;;;;1.83;0.70;;;22.50;72.80;;;;;;5055527;28;20536;-92
2023/10/22 06:16:35;;;;;;;1.20;0.70;;;22.50;72.80;;;;;;5055535;28;20440;-88
2023/10/22 06:19:02;;;;;;;1.10;0.80;;;22.50;72.80;;;;;;5055740;28;20444;-88
2023/10/22 06:21:29;;;;;;;1.10;0.70;;;22.50;72.80;;;;;;5055175;28;20994;-88
2023/10/22 06:23:56;;;;;;;1.10;0.83;;;22.50;72.80;;;;;;5055161;28;20449;-93
2023/10/22 06:26:22;;;;;;;1.10;0.77;;;22.50;72.70;;;;;;5055722;28;20434;-92
2023/10/22 06:28:49;;;;;;;1.03;0.80;;;22.50;72.80;;;;;;5055515;28;20437;-88
2023/10/22 06:31:16;;;;;;;1.00;0.70;;;22.50;73.60;;;;;;5055481;28;20437;-89
2023/10/22 06:33:44;;;;;;;1.00;0.60;;;22.50;72.80;;;;;;5055538;28;20437;-89
2023/10/22 06:36:15;;;;;;;1.10;0.70;;;22.50;72.80;;;;;;5055282;28;20523;-90
2023/10/22 06:38:42;;;;;;;1.03;0.70;;;22.50;72.80;;;;;;5055275;28;20920;-93
2023/10/22 06:41:14;;;;;;;1.10;0.80;;;22.50;72.70;;;;;;5055147;28;20447;-89
2023/10/22 06:43:41;;;;;;;1.07;0.60;;;22.50;72.80;;;;;;5055039;28;20948;-94
2023/10/22 06:46:08;;;;;;;1.80;0.83;;;22.50;72.80;;;;;;5055161;28;20459;-86
2023/10/22 06:48:35;;;;;;;1.10;0.70;;;22.50;72.90;;;;;;5054892;28;20476;-86
2023/10/22 06:51:08;;;;;;;1.10;0.80;;;22.50;72.80;;;;;;5055291;28;20449;-92
2023/10/22 06:53:35;;;;;;;1.03;0.70;;;22.50;72.80;;;;;;5054949;28;20489;-87
2023/10/22 06:56:03;;;;;;;1.00;0.70;;;22.50;72.80;;;;;;5055209;28;20436;-92
2023/10/22 06:58:30;;;;;;;1.20;0.70;;;22.50;72.80;;;;;;5054616;28;20433;-89
2023/10/22 07:01:05;;;;;;;1.00;0.70;;;22.50;72.70;;;;;;5054706;28;20443;-89
2023/10/22 07:03:32;;;;;;;1.10;0.80;;;22.50;72.80;;;;;;5054833;28;20592;-93
2023/10/22 07:05:59;;;;;;;1.10;0.70;;;22.50;72.80;;;;;;5054813;28;20536;-94
2023/10/22 07:08:28;;;;;;;1.30;0.80;;;22.50;72.80;;;;;;5054794;28;20547;-88
2023/10/22 07:10:54;;;;;;;1.77;0.80;;;22.50;72.70;;;;;;5054745;28;20437;-92
2023/10/22 07:13:21;;;;;;;1.40;0.70;;;22.50;72.80;;;;;;5054634;28;20516;-93
2023/10/22 07:15:48;;;;;;;1.30;0.80;;;22.50;72.80;;;;;;5054316;28;20437;-90
2023/10/22 07:18:15;;;;;;;1.00;0.70;;;22.50;72.70;;;;;;5053664;28;20536;-87
2023/10/22 07:20:42;;;;;;;1.10;0.77;;;22.50;72.90;;;;;;5054164;28;20484;-91
2023/10/22 07:23:09;;;;;;;1.10;0.80;;;22.50;73.00;;;;;;5053174;28;20489;-87
2023/10/22 07:25:38;;;;;;;1.00;0.70;;;22.50;72.80;;;;;;5043900;28;20442;-88
2023/10/22 07:28:04;;;;;;;1.00;0.70;;;22.50;72.90;;;;;;5053521;28;20453;-87
2023/10/22 07:30:31;;;;;;;6.50;1.10;;;22.50;72.80;;;;;;5053691;28;20536;-88
2023/10/22 07:32:59;;;;;;;2.07;0.77;;;22.60;73.00;;;;;;5052865;28;20473;-89
2023/10/22 07:35:26;;;;;;;5.63;1.03;;;22.50;72.90;;;;;;5055408;28;20540;-91
2023/10/22 07:37:52;;;;;;;0.90;0.57;;;22.50;73.10;;;;;;5049603;28;20435;-89
2023/10/22 07:40:20;;;;;;;2.40;0.70;;;22.40;73.00;;;;;;5033795;28;20442;-89
2023/10/22 07:42:48;;;;;;;1.00;0.70;;;22.40;73.20;;;;;;5034102;28;20493;-91
2023/10/22 07:45:16;;;;;;;1.73;0.70;;;22.40;72.80;;;;;;5033623;28;20952;-91
2023/10/22 07:47:42;;;;;;;1.10;0.80;;;22.40;72.90;;;;;;5033612;28;20454;-89
2023/10/22 07:50:10;;;;;;;4.87;1.47;;;22.40;72.90;;;;;;5033856;28;20437;-89
2023/10/22 07:52:37;;;;;;;1.50;0.80;;;22.40;72.90;;;;;;5033339;28;21015;-88
2023/10/22 07:55:05;;;;;;;1.00;0.60;;;22.50;72.90;;;;;;5033209;28;20446;-89
2023/10/22 07:57:33;;;;;;;1.00;0.80;;;22.50;72.80;;;;;;5033136;28;20446;-88
2023/10/22 08:00:01;;;;;;;2.40;0.70;;;22.50;72.80;;;;;;5033452;28;20438;-88
2023/10/22 08:02:27;;;;;;;1.10;0.80;;;22.50;73.00;;;;;;5033078;28;20485;-88
2023/10/22 08:04:54;;;;;;;3.40;1.20;;;22.50;72.90;;;;;;5033170;28;20434;-88
2023/10/22 08:07:21;;;;;;;1.60;1.23;;;22.50;72.80;;;;;;5047994;28;20958;-89
2023/10/22 08:09:48;;;;;;;2.20;1.03;;;22.60;73.00;;;;;;5053330;28;20808;-88
2023/10/22 08:12:15;;;;;;;1.77;1.23;;;22.40;72.70;;;;;;5053481;28;20437;-89
2023/10/22 08:14:41;;;;;;;5.43;1.00;;;22.50;73.80;;;;;;5053420;28;20472;-89
2023/10/22 08:17:10;;;;;;;2.30;0.90;;;22.50;72.80;;;;;;5053544;28;20785;-88
2023/10/22 08:19:36;;;;;;;1.40;0.70;;;22.50;72.80;;;;;;5053336;28;20434;-88
2023/10/22 08:22:04;;;;;;;2.17;1.30;;;22.50;73.30;;;;;;5052992;28;20476;-90
2023/10/22 08:24:31;;;;;;;2.60;1.03;;;22.50;72.80;;;;;;5053412;28;20445;-87
2023/10/22 08:27:00;;;;;;;1.37;0.80;;;22.50;73.30;;;;;;5053310;28;20820;-87
2023/10/22 08:29:27;;;;;;;1.30;0.93;;;22.50;73.00;;;;;;5057010;28;20441;-86
2023/10/22 08:31:54;;;;;;;4.50;0.90;;;22.50;72.90;;;;;;5057175;28;20451;-87
2023/10/22 08:34:22;;;;;;;1.10;0.80;;;22.50;72.90;;;;;;5057367;28;20443;-86
2023/10/22 08:36:49;;;;;;;2.33;1.00;;;22.50;72.90;;;;;;5057246;28;20444;-88
2023/10/22 08:39:16;;;;;;;3.10;1.00;;;22.50;73.20;;;;;;5056880;28;20444;-87
2023/10/22 08:41:49;;;;;;;2.43;0.97;;;22.50;73.20;;;;;;5057317;28;20541;-87
2023/10/22 08:44:16;;;;;;;5.67;1.27;;;22.50;71.70;;;;;;5057105;28;20499;-88
2023/10/22 08:46:43;;;;;;;1.60;0.87;;;22.50;71.90;;;;;;5056978;28;20519;-84
2023/10/22 08:49:11;;;;;;;4.13;1.37;;;22.50;72.30;;;;;;5057233;28;20518;-94
2023/10/22 08:51:40;;;;;;;5.90;1.00;;;22.50;73.10;;;;;;5056975;28;20532;-90
2023/10/22 08:54:10;;;;;;;1.50;1.13;;;22.50;72.70;;;;;;5056883;28;20467;-89
2023/10/22 08:56:37;;;;;;;2.87;1.20;;;22.50;72.50;;;;;;5057208;28;20782;-90
2023/10/22 08:59:05;;;;;;;2.70;0.90;;;22.50;72.50;;;;;;5057218;28;20441;-94
2023/10/22 09:01:32;;;;;;;2.53;1.00;;;22.50;72.50;;;;;;5057045;28;20540;-87
2023/10/22 09:03:59;;;;;;;6.03;1.13;;;22.60;73.30;;;;;;5056293;28;20567;-87
2023/10/22 09:06:26;;;;;;;4.90;1.10;;;22.60;75.00;;;;;;5056530;28;20445;-87
2023/10/22 09:08:54;;;;;;;2.30;1.10;;;22.60;75.60;;;;;;5056785;28;20437;-88
2023/10/22 09:11:24;;;;;;;5.77;1.40;;;22.50;75.90;;;;;;5056751;28;20445;-88
2023/10/22 09:13:50;;;;;;;2.77;0.87;;;22.60;75.30;;;;;;5056412;28;20939;-87
2023/10/22 09:16:30;;;;;;;1.67;0.90;;;22.50;74.00;;;;;;5056875;28;20441;-88
2023/10/22 09:18:58;;;;;;;3.77;1.23;;;22.50;71.00;;;;;;5056153;28;20437;-88
2023/10/22 09:21:40;;;;;;;2.20;1.10;;;22.40;71.60;;;;;;5055914;28;20473;-88
2023/10/22 09:24:09;;;;;;;1.30;0.90;;;22.40;73.30;;;;;;5056134;28;20488;-87
2023/10/22 09:26:43;;;;;;;3.23;1.03;;;22.40;73.60;;;;;;5056071;28;20437;-88
2023/10/22 09:29:10;;;;;;;4.23;1.37;;;22.40;74.90;;;;;;5055972;28;20955;-87
2023/10/22 09:31:37;;;;;;;4.60;1.70;;;22.40;73.70;;;;;;5055992;28;20441;-88
2023/10/22 09:34:04;;;;;;;6.33;1.10;;;22.40;75.00;;;;;;5055910;28;20962;-87
2023/10/22 09:36:30;;;;;;;2.07;1.20;;;22.50;75.40;;;;;;5055963;28;20441;-88
2023/10/22 09:38:57;;;;;;;3.67;1.17;;;22.50;75.20;;;;;;5055748;28;20806;-88
2023/10/22 09:41:29;;;;;;;16.00;1.80;;;22.60;75.10;;;;;;5055686;28;20437;-87
2023/10/22 09:43:57;;;;;;;2.77;1.30;;;22.50;72.20;;;;;;5056073;28;20484;-87
2023/10/22 09:46:29;;;;;;;4.00;1.27;;;22.50;71.30;;;;;;5057870;28;20441;-92
2023/10/22 09:48:58;;;;;;;6.70;1.37;;;22.50;71.20;;;;;;5056689;28;20425;-91
2023/10/22 09:51:30;;;;;;;1.87;1.20;;;22.60;71.30;;;;;;5056479;28;20444;-92
2023/10/22 09:53:58;;;;;;;1.43;1.07;;;22.50;73.60;;;;;;5055923;28;20464;-92
2023/10/22 09:56:27;;;;;;;2.80;1.10;;;22.50;73.70;;;;;;5055717;28;21007;-92
2023/10/22 09:59:00;;;;;;;2.93;1.20;;;22.50;74.50;;;;;;5056095;28;20460;-92
2023/10/22 10:01:30;;;;;;;2.27;1.20;;;22.50;74.60;;;;;;5055889;28;20441;-93
2023/10/22 10:03:59;;;;;;;3.20;1.20;;;22.50;75.00;;;;;;5055856;28;20882;-93
2023/10/22 10:06:26;;;;;;;2.37;1.00;;;22.50;75.10;;;;;;5055744;28;20433;-91
2023/10/22 10:08:54;;;;;;;2.77;0.90;;;22.50;75.10;;;;;;5055714;28;20448;-90
2023/10/22 10:11:22;;;;;;;3.67;1.30;;;22.50;75.10;;;;;;5055550;28;20441;-91
2023/10/22 10:13:50;;;;;;;1.37;1.03;;;22.60;75.00;;;;;;5055387;28;20834;-92
2023/10/22 10:16:17;;;;;;;2.70;1.30;;;22.60;75.50;;;;;;5055610;28;20445;-93
2023/10/22 10:19:03;;;;;;;2.33;0.97;;;22.50;75.50;;;;;;5055269;28;20441;-89
2023/10/22 10:21:47;;;;;;;2.83;1.00;;;22.50;75.20;;;;;;5056078;28;20473;-93
2023/10/22 10:24:21;;;;;;;3.50;1.13;;;22.60;75.20;;;;;;5055296;28;20987;-93
2023/10/22 10:26:50;;;;;;;3.00;1.00;;;22.60;75.50;;;;;;5055089;28;20924;-90
2023/10/22 10:29:20;;;;;;;5.20;1.60;;;22.60;75.70;;;;;;5055174;28;20445;-92
2023/10/22 10:31:48;;;;;;;1.70;1.20;;;22.60;75.20;;;;;;5055305;28;20442;-92
2023/10/22 10:34:22;;;;;;;2.60;1.30;;;22.60;75.60;;;;;;5055156;28;20441;-92
2023/10/22 10:36:51;;;;;;;1.63;1.20;;;22.60;75.50;;;;;;5055887;28;20472;-89
2023/10/22 10:39:42;;;;;;;2.13;1.10;;;22.60;75.50;;;;;;5063500;28;20444;-92
2023/10/22 10:42:09;;;;;;;4.03;1.00;;;22.60;75.40;;;;;;5069032;28;20436;-90
2023/10/22 10:45:06;;;;;;;1.50;0.93;;;22.60;75.60;;;;;;5054955;28;20576;-92
2023/10/22 10:47:35;;;;;;;2.57;1.40;;;22.60;75.50;;;;;;5054793;28;20436;-91
2023/10/22 10:50:06;;;;;;;2.67;0.90;;;22.60;75.80;;;;;;5054906;28;20438;-91
2023/10/22 10:52:59;;;;;;;3.40;1.10;;;22.60;75.50;;;;;;5054817;28;20461;-92
2023/10/22 10:55:33;;;;;;;4.13;1.10;;;22.60;75.80;;;;;;5055048;28;20441;-91
2023/10/22 10:58:01;;;;;;;4.20;1.33;;;22.60;76.10;;;;;;5055215;28;20430;-92
2023/10/22 11:00:31;;;;;;;2.07;0.90;;;22.60;75.70;;;;;;5055347;28;20444;-89
2023/10/22 11:03:00;;;;;;;1.10;0.70;;;22.60;75.50;;;;;;5054195;28;20473;-91
2023/10/22 11:05:33;;;;;;;2.90;1.20;;;22.60;74.10;;;;;;5054590;28;20441;-92
2023/10/22 11:08:00;;;;;;;3.50;1.10;;;22.60;73.60;;;;;;5054204;28;20452;-90
2023/10/22 11:10:29;;;;;;;2.77;1.10;;;22.60;73.50;;;;;;5054567;28;20452;-89
2023/10/22 11:13:03;;;;;;;1.93;0.70;;;22.60;73.90;;;;;;5054889;28;20446;-91
2023/10/22 11:16:03;;;;;;;5.10;0.90;;;22.60;73.80;;;;;;5066614;28;20489;-84
2023/10/22 11:18:30;;;;;;;1.90;0.90;;;22.60;75.00;;;;;;5058184;28;20470;-88
2023/10/22 11:20:57;;;;;;;1.57;0.90;;;22.60;75.70;;;;;;5033829;28;20474;-89
2023/10/22 11:23:24;;;;;;;3.73;1.00;;;22.60;75.50;;;;;;5034261;28;20498;-86
2023/10/22 11:25:52;;;;;;;3.93;0.90;;;22.60;74.70;;;;;;5034246;28;20537;-88
2023/10/22 11:28:20;;;;;;;2.13;0.80;;;22.60;74.40;;;;;;5034414;28;20548;-91
2023/10/22 11:30:47;;;;;;;3.23;0.80;;;22.70;74.00;;;;;;5034918;28;20450;-92
2023/10/22 11:33:32;;;;;;;1.57;0.90;;;22.60;74.10;;;;;;5034681;28;20821;-92
2023/10/22 11:46:08;;;;;;;2.27;0.80;;;22.60;74.80;;;;;;5024670;23;20988;-87
2023/10/22 11:51:05;;;;;;;2.30;1.10;;;22.60;75.80;;;;;;5053493;23;20497;-87
2023/10/22 11:53:42;;;;;;;2.33;1.00;;;22.50;75.80;;;;;;5045910;28;20305;-87
2023/10/22 11:56:09;;;;;;;2.63;1.30;;;22.60;76.20;;;;;;5044396;28;20444;-87
2023/10/22 11:58:38;;;;;;;2.20;0.87;;;22.50;75.80;;;;;;5048484;28;20462;-87
2023/10/22 12:01:05;;;;;;;1.77;0.90;;;22.60;76.00;;;;;;5057971;23;20493;-86
2023/10/22 12:03:32;;;;;;;1.70;1.47;;;22.60;75.80;;;;;;5046909;28;20461;-87
2023/10/22 12:06:01;;;;;;;1.70;0.90;;;22.60;75.90;;;;;;5078589;23;20674;-87
2023/10/22 12:08:30;;;;;;;2.97;0.87;;;22.60;75.90;;;;;;5087234;23;20481;-87
2023/10/22 12:10:56;;;;;;;2.23;0.90;;;22.60;75.70;;;;;;5043258;23;20518;-87
2023/10/22 12:13:23;;;;;;;1.40;0.77;;;22.60;75.80;;;;;;5025270;28;20541;-87
2023/10/22 12:15:50;;;;;;;2.30;0.90;;;22.60;75.70;;;;;;5022910;28;20456;-87
2023/10/22 12:18:17;;;;;;;1.27;0.70;;;22.70;76.60;;;;;;5023225;28;20458;-87
2023/10/22 12:20:44;;;;;;;2.07;0.97;;;22.70;75.70;;;;;;5026680;28;20538;-87
2023/10/22 12:23:12;;;;;;;1.97;0.90;;;22.70;75.70;;;;;;5045570;23;20517;-87
2023/10/22 12:25:46;;;;;;;2.10;1.00;;;22.70;75.70;;;;;;5045651;28;20439;-87
2023/10/22 12:28:14;;;;;;;1.97;1.17;;;22.70;75.70;;;;;;5045480;28;20426;-87
2023/10/22 12:30:44;;;;;;;1.47;0.90;;;22.70;75.80;;;;;;5044491;28;20441;-87
2023/10/22 12:33:17;;;;;;;1.57;0.80;;;22.70;75.50;;;;;;5043343;28;20450;-87
2023/10/22 12:35:44;;;;;;;2.10;0.83;;;22.80;75.70;;;;;;5043635;28;20438;-87
2023/10/22 12:38:15;;;;;;;2.40;0.90;;;22.70;75.50;;;;;;5050980;22;20541;-86
2023/10/22 12:40:48;;;;;;;3.20;1.00;;;22.80;75.60;;;;;;5043132;28;21026;-87
2023/10/22 12:43:17;;;;;;;1.87;0.90;;;22.80;75.40;;;;;;5045173;28;20434;-87
2023/10/22 12:45:48;;;;;;;1.20;0.80;;;22.80;75.60;;;;;;5045522;28;20458;-87
2023/10/22 12:48:15;;;;;;;1.67;0.67;;;22.80;75.60;;;;;;5051094;23;20565;-87
2023/10/22 12:50:48;;;;;;;1.83;1.00;;;22.80;75.50;;;;;;5046482;28;20455;-87
2023/10/22 12:53:17;;;;;;;1.60;0.80;;;22.90;75.50;;;;;;5043661;28;20454;-87
2023/10/22 12:55:53;;;;;;;2.33;0.90;;;22.90;75.60;;;;;;5044366;28;20442;-87
2023/10/22 12:58:20;;;;;;;1.50;1.20;;;22.90;75.70;;;;;;5048596;28;20509;-87
2023/10/22 13:00:48;;;;;;;1.30;0.70;;;22.90;75.60;;;;;;5055653;23;20505;-86
2023/10/22 13:03:20;;;;;;;2.17;1.00;;;23.00;75.60;;;;;;5044358;28;20438;-87
2023/10/22 13:05:51;;;;;;;1.40;0.73;;;23.00;75.60;;;;;;5046795;28;20435;-87